Airfield :
LOGIN :

Register | Disclaimer

   EN    FR    IT 

 










Legend :    VFR   Marginal VFR   IFR   Intensive IFR   Very Intensive IFR
Visi :
Ceiling :
>= 8 km
>= 3000ft
5 to 8 km
1000 to 3000 ft
1500m to 5 km
500 to 1000 ft
800 to 1500m
200 to 500 ft
< 800m
< 200 ft
Symbols :   Thunderstorms  Fog  Heavy snow  Heavy precipitations  Wind > 20 kt
SIGMETs :     Misc.  Thunderstorms  Icing  Turbulence  Mountain Waves  Volcanic Ashes







- Airport Elevation : 359 ft
- IATA code : BVA
- Download approach charts


LFOB - Beauvais

CURRENT METAR :
  • 241100Z AUTO 30007KT CAVOK 27/19 Q1017 NOSIG

EXPIRED METARs :
  • 241030Z AUTO 30006KT 260V340 CAVOK 28/19 Q1017 NOSIG
  • 241000Z AUTO 29004KT 220V360 9999 // NSC 28/19 Q1017
  • 240930Z AUTO VRB02KT CAVOK 27/18 Q1016 NOSIG
  • 240900Z AUTO VRB02KT CAVOK 27/18 Q1016 NOSIG
  • 240830Z AUTO 29004KT 180V350 9999 0450 R30/0650D R12/P2000 // NSC 26/19 Q1016

TAF TAF LFOB
Valid from the 24 at 06:00 until the 25 at 06:00 UTC


240500Z 2406/2506 10005KT CAVOK
BECMG 2413/2415 36015G25KT
BECMG 2416/2418 04008KT
ATIS : +33 3 44 11 49 28
No reported NOTAMs for that airfield.



MET'MAP, your aeronautical weather chart ! - Copyright ORBIFLY December 2007 - Disclaimer

ORBIFLY MET'MAP TEAM :

Programming & Development : Alexandra Zaïnal
Concept & Development : Baudouin d'Aumeries
Co-Development & Prog : Marc-Olivier Méhu
Technical & hardware support : Manuel Goepfert

Contact : metmap@orbifly.com




SOURCES & CREDITS :

   NOAA